sensor_id;sensor_type;location;lat;lon;timestamp;P1;durP1;ratioP1;P2;durP2;ratioP2
84138;SDS011;74250;51.528;6.748;2024-01-15T00:02:06;33.80;;;15.65;;
84138;SDS011;74250;51.528;6.748;2024-01-15T00:04:39;34.03;;;15.52;;
84138;SDS011;74250;51.528;6.748;2024-01-15T00:07:05;32.00;;;15.82;;
84138;SDS011;74250;51.528;6.748;2024-01-15T00:09:31;35.20;;;15.68;;
84138;SDS011;74250;51.528;6.748;2024-01-15T00:11:56;36.88;;;16.38;;
84138;SDS011;74250;51.528;6.748;2024-01-15T00:14:22;31.60;;;13.85;;
84138;SDS011;74250;51.528;6.748;2024-01-15T00:16:47;39.15;;;16.02;;
84138;SDS011;74250;51.528;6.748;2024-01-15T00:19:15;33.55;;;17.88;;
84138;SDS011;74250;51.528;6.748;2024-01-15T00:21:41;34.03;;;15.48;;
84138;SDS011;74250;51.528;6.748;2024-01-15T00:24:06;30.77;;;14.77;;
84138;SDS011;74250;51.528;6.748;2024-01-15T00:26:31;28.17;;;13.00;;
84138;SDS011;74250;51.528;6.748;2024-01-15T00:28:57;32.65;;;15.88;;
84138;SDS011;74250;51.528;6.748;2024-01-15T00:31:22;25.10;;;12.98;;
84138;SDS011;74250;51.528;6.748;2024-01-15T00:33:47;33.28;;;15.57;;
84138;SDS011;74250;51.528;6.748;2024-01-15T00:36:13;29.23;;;16.02;;
84138;SDS011;74250;51.528;6.748;2024-01-15T00:38:39;29.00;;;12.70;;
84138;SDS011;74250;51.528;6.748;2024-01-15T00:41:04;23.15;;;11.65;;
84138;SDS011;74250;51.528;6.748;2024-01-15T00:43:30;27.95;;;12.52;;
84138;SDS011;74250;51.528;6.748;2024-01-15T00:45:55;25.98;;;11.95;;
84138;SDS011;74250;51.528;6.748;2024-01-15T00:48:21;29.27;;;13.55;;
84138;SDS011;74250;51.528;6.748;2024-01-15T00:50:46;25.25;;;13.65;;
84138;SDS011;74250;51.528;6.748;2024-01-15T00:53:11;26.40;;;12.18;;
84138;SDS011;74250;51.528;6.748;2024-01-15T00:55:37;19.90;;;11.02;;
84138;SDS011;74250;51.528;6.748;2024-01-15T00:58:02;27.13;;;13.15;;
84138;SDS011;74250;51.528;6.748;2024-01-15T01:00:30;26.70;;;11.77;;
84138;SDS011;74250;51.528;6.748;2024-01-15T01:02:55;24.80;;;11.52;;
84138;SDS011;74250;51.528;6.748;2024-01-15T01:05:20;21.08;;;9.55;;
84138;SDS011;74250;51.528;6.748;2024-01-15T01:07:46;26.88;;;12.40;;
84138;SDS011;74250;51.528;6.748;2024-01-15T01:10:11;25.65;;;14.95;;
84138;SDS011;74250;51.528;6.748;2024-01-15T01:12:36;24.75;;;12.05;;
84138;SDS011;74250;51.528;6.748;2024-01-15T01:15:02;23.83;;;11.10;;
84138;SDS011;74250;51.528;6.748;2024-01-15T01:17:27;26.77;;;12.95;;
84138;SDS011;74250;51.528;6.748;2024-01-15T01:19:53;20.73;;;10.52;;
84138;SDS011;74250;51.528;6.748;2024-01-15T01:22:19;25.38;;;14.10;;
84138;SDS011;74250;51.528;6.748;2024-01-15T01:24:44;26.70;;;12.85;;
84138;SDS011;74250;51.528;6.748;2024-01-15T01:27:10;25.88;;;12.32;;
84138;SDS011;74250;51.528;6.748;2024-01-15T01:29:36;23.08;;;11.32;;
84138;SDS011;74250;51.528;6.748;2024-01-15T01:32:01;25.15;;;11.82;;
84138;SDS011;74250;51.528;6.748;2024-01-15T01:34:26;22.73;;;13.00;;
84138;SDS011;74250;51.528;6.748;2024-01-15T01:36:52;22.73;;;12.93;;
84138;SDS011;74250;51.528;6.748;2024-01-15T01:39:18;26.23;;;12.98;;
84138;SDS011;74250;51.528;6.748;2024-01-15T01:41:43;24.33;;;12.55;;
84138;SDS011;74250;51.528;6.748;2024-01-15T01:44:08;25.27;;;12.95;;
84138;SDS011;74250;51.528;6.748;2024-01-15T01:46:34;25.50;;;11.70;;
84138;SDS011;74250;51.528;6.748;2024-01-15T01:49:05;25.17;;;11.77;;
84138;SDS011;74250;51.528;6.748;2024-01-15T01:51:31;24.25;;;13.80;;
84138;SDS011;74250;51.528;6.748;2024-01-15T01:53:59;20.08;;;11.07;;
84138;SDS011;74250;51.528;6.748;2024-01-15T01:56:25;24.58;;;15.18;;
84138;SDS011;74250;51.528;6.748;2024-01-15T01:58:50;23.35;;;14.15;;
84138;SDS011;74250;51.528;6.748;2024-01-15T02:01:16;21.98;;;11.95;;
84138;SDS011;74250;51.528;6.748;2024-01-15T02:03:42;25.58;;;14.50;;
84138;SDS011;74250;51.528;6.748;2024-01-15T02:06:08;21.08;;;12.15;;
84138;SDS011;74250;51.528;6.748;2024-01-15T02:08:34;19.60;;;11.55;;
84138;SDS011;74250;51.528;6.748;2024-01-15T02:11:00;22.27;;;10.30;;
84138;SDS011;74250;51.528;6.748;2024-01-15T02:13:25;22.27;;;10.23;;
84138;SDS011;74250;51.528;6.748;2024-01-15T02:15:50;21.77;;;10.15;;
84138;SDS011;74250;51.528;6.748;2024-01-15T02:18:16;21.08;;;9.55;;
84138;SDS011;74250;51.528;6.748;2024-01-15T02:20:41;22.00;;;10.70;;
84138;SDS011;74250;51.528;6.748;2024-01-15T02:23:13;26.23;;;13.93;;
84138;SDS011;74250;51.528;6.748;2024-01-15T02:25:41;21.23;;;9.95;;
84138;SDS011;74250;51.528;6.748;2024-01-15T02:28:09;26.38;;;11.35;;
84138;SDS011;74250;51.528;6.748;2024-01-15T02:30:39;21.40;;;11.85;;
84138;SDS011;74250;51.528;6.748;2024-01-15T02:33:06;24.75;;;12.48;;
84138;SDS011;74250;51.528;6.748;2024-01-15T02:35:32;21.38;;;10.52;;
84138;SDS011;74250;51.528;6.748;2024-01-15T02:37:58;24.20;;;11.23;;
84138;SDS011;74250;51.528;6.748;2024-01-15T02:40:23;20.75;;;9.90;;
84138;SDS011;74250;51.528;6.748;2024-01-15T02:42:49;22.88;;;9.88;;
84138;SDS011;74250;51.528;6.748;2024-01-15T02:45:18;18.17;;;10.32;;
84138;SDS011;74250;51.528;6.748;2024-01-15T02:47:44;20.00;;;8.85;;
84138;SDS011;74250;51.528;6.748;2024-01-15T02:50:10;18.70;;;9.18;;
84138;SDS011;74250;51.528;6.748;2024-01-15T02:52:35;22.20;;;9.88;;
84138;SDS011;74250;51.528;6.748;2024-01-15T02:55:01;22.02;;;11.00;;
84138;SDS011;74250;51.528;6.748;2024-01-15T02:57:26;24.05;;;9.95;;
84138;SDS011;74250;51.528;6.748;2024-01-15T02:59:51;20.13;;;8.88;;
84138;SDS011;74250;51.528;6.748;2024-01-15T03:02:18;18.15;;;9.00;;
84138;SDS011;74250;51.528;6.748;2024-01-15T03:04:44;18.70;;;8.52;;
84138;SDS011;74250;51.528;6.748;2024-01-15T03:07:09;17.10;;;10.43;;
84138;SDS011;74250;51.528;6.748;2024-01-15T03:09:35;18.20;;;9.82;;
84138;SDS011;74250;51.528;6.748;2024-01-15T03:12:01;15.20;;;7.78;;
84138;SDS011;74250;51.528;6.748;2024-01-15T03:14:27;16.08;;;7.90;;
84138;SDS011;74250;51.528;6.748;2024-01-15T03:16:52;19.67;;;8.80;;
84138;SDS011;74250;51.528;6.748;2024-01-15T03:19:18;19.05;;;9.57;;
84138;SDS011;74250;51.528;6.748;2024-01-15T03:21:44;14.57;;;6.57;;
84138;SDS011;74250;51.528;6.748;2024-01-15T03:24:09;13.82;;;6.22;;
84138;SDS011;74250;51.528;6.748;2024-01-15T03:26:35;14.23;;;8.60;;
84138;SDS011;74250;51.528;6.748;2024-01-15T03:29:01;13.35;;;6.05;;
84138;SDS011;74250;51.528;6.748;2024-01-15T03:31:26;14.73;;;7.32;;
84138;SDS011;74250;51.528;6.748;2024-01-15T03:33:52;12.88;;;7.68;;
84138;SDS011;74250;51.528;6.748;2024-01-15T03:36:17;11.55;;;5.07;;
84138;SDS011;74250;51.528;6.748;2024-01-15T03:38:43;15.57;;;7.60;;
84138;SDS011;74250;51.528;6.748;2024-01-15T03:41:08;15.55;;;6.28;;
84138;SDS011;74250;51.528;6.748;2024-01-15T03:43:34;14.05;;;5.70;;
84138;SDS011;74250;51.528;6.748;2024-01-15T03:45:59;14.73;;;6.28;;
84138;SDS011;74250;51.528;6.748;2024-01-15T03:48:24;12.57;;;5.68;;
84138;SDS011;74250;51.528;6.748;2024-01-15T03:50:50;13.77;;;6.60;;
84138;SDS011;74250;51.528;6.748;2024-01-15T03:53:17;11.93;;;6.07;;
84138;SDS011;74250;51.528;6.748;2024-01-15T03:55:42;12.25;;;6.13;;
84138;SDS011;74250;51.528;6.748;2024-01-15T03:58:10;12.65;;;5.57;;
84138;SDS011;74250;51.528;6.748;2024-01-15T04:00:36;10.50;;;6.25;;
84138;SDS011;74250;51.528;6.748;2024-01-15T04:03:03;15.75;;;6.03;;
84138;SDS011;74250;51.528;6.748;2024-01-15T04:05:28;13.02;;;5.65;;
84138;SDS011;74250;51.528;6.748;2024-01-15T04:07:53;11.90;;;5.05;;
84138;SDS011;74250;51.528;6.748;2024-01-15T04:10:19;12.55;;;5.97;;
84138;SDS011;74250;51.528;6.748;2024-01-15T04:12:44;13.73;;;5.40;;
84138;SDS011;74250;51.528;6.748;2024-01-15T04:15:12;16.02;;;7.00;;
84138;SDS011;74250;51.528;6.748;2024-01-15T04:17:38;14.30;;;9.15;;
84138;SDS011;74250;51.528;6.748;2024-01-15T04:20:04;11.70;;;6.93;;
84138;SDS011;74250;51.528;6.748;2024-01-15T04:22:30;9.25;;;6.15;;
84138;SDS011;74250;51.528;6.748;2024-01-15T04:24:55;12.18;;;5.88;;
84138;SDS011;74250;51.528;6.748;2024-01-15T04:27:20;11.07;;;6.57;;
84138;SDS011;74250;51.528;6.748;2024-01-15T04:29:46;13.68;;;7.20;;
84138;SDS011;74250;51.528;6.748;2024-01-15T04:32:11;14.25;;;6.95;;
84138;SDS011;74250;51.528;6.748;2024-01-15T04:34:37;13.20;;;6.82;;
84138;SDS011;74250;51.528;6.748;2024-01-15T04:37:02;12.63;;;6.95;;
84138;SDS011;74250;51.528;6.748;2024-01-15T04:39:28;10.20;;;5.90;;
84138;SDS011;74250;51.528;6.748;2024-01-15T04:41:53;16.50;;;8.20;;
84138;SDS011;74250;51.528;6.748;2024-01-15T04:44:18;14.05;;;7.38;;
84138;SDS011;74250;51.528;6.748;2024-01-15T04:46:44;10.13;;;6.07;;
84138;SDS011;74250;51.528;6.748;2024-01-15T04:49:09;11.65;;;5.20;;
84138;SDS011;74250;51.528;6.748;2024-01-15T04:51:36;13.68;;;7.63;;
84138;SDS011;74250;51.528;6.748;2024-01-15T04:54:01;10.90;;;6.78;;
84138;SDS011;74250;51.528;6.748;2024-01-15T04:56:27;13.75;;;8.73;;
84138;SDS011;74250;51.528;6.748;2024-01-15T04:58:52;11.43;;;5.88;;
84138;SDS011;74250;51.528;6.748;2024-01-15T05:01:17;11.70;;;7.82;;
84138;SDS011;74250;51.528;6.748;2024-01-15T05:03:43;12.10;;;7.47;;
84138;SDS011;74250;51.528;6.748;2024-01-15T05:06:08;15.15;;;7.50;;
84138;SDS011;74250;51.528;6.748;2024-01-15T05:08:34;11.65;;;6.78;;
84138;SDS011;74250;51.528;6.748;2024-01-15T05:10:59;15.07;;;7.20;;
84138;SDS011;74250;51.528;6.748;2024-01-15T05:13:24;7.90;;;6.07;;
84138;SDS011;74250;51.528;6.748;2024-01-15T05:15:50;11.48;;;6.15;;
84138;SDS011;74250;51.528;6.748;2024-01-15T05:18:15;14.43;;;7.38;;
84138;SDS011;74250;51.528;6.748;2024-01-15T05:20:42;11.15;;;7.28;;
84138;SDS011;74250;51.528;6.748;2024-01-15T05:23:07;14.57;;;5.78;;
84138;SDS011;74250;51.528;6.748;2024-01-15T05:25:33;9.90;;;3.95;;
84138;SDS011;74250;51.528;6.748;2024-01-15T05:27:58;13.02;;;6.40;;
84138;SDS011;74250;51.528;6.748;2024-01-15T05:30:23;11.40;;;7.63;;
84138;SDS011;74250;51.528;6.748;2024-01-15T05:32:49;10.52;;;6.47;;
84138;SDS011;74250;51.528;6.748;2024-01-15T05:35:14;9.80;;;6.40;;
84138;SDS011;74250;51.528;6.748;2024-01-15T05:37:43;10.70;;;6.20;;
84138;SDS011;74250;51.528;6.748;2024-01-15T05:40:09;11.10;;;7.13;;
84138;SDS011;74250;51.528;6.748;2024-01-15T05:42:35;12.57;;;7.15;;
84138;SDS011;74250;51.528;6.748;2024-01-15T05:45:01;11.52;;;7.50;;
84138;SDS011;74250;51.528;6.748;2024-01-15T05:47:28;14.18;;;7.00;;
84138;SDS011;74250;51.528;6.748;2024-01-15T05:49:54;13.35;;;8.63;;
84138;SDS011;74250;51.528;6.748;2024-01-15T05:52:21;11.27;;;6.93;;
84138;SDS011;74250;51.528;6.748;2024-01-15T05:54:47;13.00;;;7.75;;
84138;SDS011;74250;51.528;6.748;2024-01-15T05:57:12;11.43;;;6.72;;
84138;SDS011;74250;51.528;6.748;2024-01-15T05:59:37;13.52;;;9.48;;
84138;SDS011;74250;51.528;6.748;2024-01-15T06:02:03;15.20;;;8.10;;
84138;SDS011;74250;51.528;6.748;2024-01-15T06:04:29;10.43;;;6.35;;
84138;SDS011;74250;51.528;6.748;2024-01-15T06:06:54;14.30;;;8.35;;
84138;SDS011;74250;51.528;6.748;2024-01-15T06:09:19;15.10;;;6.95;;
84138;SDS011;74250;51.528;6.748;2024-01-15T06:11:46;13.25;;;5.95;;
84138;SDS011;74250;51.528;6.748;2024-01-15T06:14:11;9.75;;;5.20;;
84138;SDS011;74250;51.528;6.748;2024-01-15T06:16:37;9.98;;;7.10;;
84138;SDS011;74250;51.528;6.748;2024-01-15T06:19:02;7.57;;;5.45;;
84138;SDS011;74250;51.528;6.748;2024-01-15T06:21:28;11.77;;;4.93;;
84138;SDS011;74250;51.528;6.748;2024-01-15T06:23:53;10.38;;;5.93;;
84138;SDS011;74250;51.528;6.748;2024-01-15T06:26:21;8.02;;;4.35;;
84138;SDS011;74250;51.528;6.748;2024-01-15T06:28:47;8.85;;;4.80;;
84138;SDS011;74250;51.528;6.748;2024-01-15T06:31:12;5.70;;;2.63;;
84138;SDS011;74250;51.528;6.748;2024-01-15T06:33:38;7.03;;;2.83;;
84138;SDS011;74250;51.528;6.748;2024-01-15T06:36:03;5.75;;;2.28;;
84138;SDS011;74250;51.528;6.748;2024-01-15T06:38:29;5.35;;;3.45;;
84138;SDS011;74250;51.528;6.748;2024-01-15T06:40:54;6.57;;;1.92;;
84138;SDS011;74250;51.528;6.748;2024-01-15T06:43:20;6.93;;;2.03;;
84138;SDS011;74250;51.528;6.748;2024-01-15T06:45:45;6.35;;;2.25;;
84138;SDS011;74250;51.528;6.748;2024-01-15T06:48:10;3.80;;;1.52;;
84138;SDS011;74250;51.528;6.748;2024-01-15T06:50:39;4.68;;;1.63;;
84138;SDS011;74250;51.528;6.748;2024-01-15T06:53:05;5.97;;;2.33;;
84138;SDS011;74250;51.528;6.748;2024-01-15T06:55:30;5.15;;;1.00;;
84138;SDS011;74250;51.528;6.748;2024-01-15T06:57:55;7.22;;;2.13;;
84138;SDS011;74250;51.528;6.748;2024-01-15T07:00:21;4.85;;;1.17;;
84138;SDS011;74250;51.528;6.748;2024-01-15T07:02:47;7.28;;;1.30;;
84138;SDS011;74250;51.528;6.748;2024-01-15T07:05:12;4.10;;;1.13;;
84138;SDS011;74250;51.528;6.748;2024-01-15T07:07:38;3.65;;;1.58;;
84138;SDS011;74250;51.528;6.748;2024-01-15T07:10:03;4.63;;;1.58;;
84138;SDS011;74250;51.528;6.748;2024-01-15T07:12:30;2.53;;;0.80;;
84138;SDS011;74250;51.528;6.748;2024-01-15T07:14:56;7.35;;;1.00;;
84138;SDS011;74250;51.528;6.748;2024-01-15T07:17:32;5.25;;;1.55;;
84138;SDS011;74250;51.528;6.748;2024-01-15T07:20:00;5.32;;;1.73;;
84138;SDS011;74250;51.528;6.748;2024-01-15T07:22:26;3.85;;;1.48;;
84138;SDS011;74250;51.528;6.748;2024-01-15T07:24:52;3.58;;;1.20;;
84138;SDS011;74250;51.528;6.748;2024-01-15T07:27:17;2.95;;;1.83;;
84138;SDS011;74250;51.528;6.748;2024-01-15T07:29:43;2.58;;;0.90;;
84138;SDS011;74250;51.528;6.748;2024-01-15T07:32:10;4.47;;;1.10;;
84138;SDS011;74250;51.528;6.748;2024-01-15T07:34:37;5.88;;;1.67;;
84138;SDS011;74250;51.528;6.748;2024-01-15T07:37:02;3.30;;;1.20;;
84138;SDS011;74250;51.528;6.748;2024-01-15T07:39:28;4.40;;;1.30;;
84138;SDS011;74250;51.528;6.748;2024-01-15T07:41:53;6.28;;;1.63;;
84138;SDS011;74250;51.528;6.748;2024-01-15T07:44:19;3.25;;;1.58;;
84138;SDS011;74250;51.528;6.748;2024-01-15T07:46:46;5.18;;;1.83;;
84138;SDS011;74250;51.528;6.748;2024-01-15T07:49:12;4.40;;;2.75;;
84138;SDS011;74250;51.528;6.748;2024-01-15T07:51:38;5.43;;;1.92;;
84138;SDS011;74250;51.528;6.748;2024-01-15T07:54:05;5.35;;;2.42;;
84138;SDS011;74250;51.528;6.748;2024-01-15T07:56:31;6.50;;;2.25;;
84138;SDS011;74250;51.528;6.748;2024-01-15T07:58:56;7.18;;;3.00;;
84138;SDS011;74250;51.528;6.748;2024-01-15T08:01:23;8.07;;;3.70;;
84138;SDS011;74250;51.528;6.748;2024-01-15T08:03:48;8.85;;;3.88;;
84138;SDS011;74250;51.528;6.748;2024-01-15T08:06:14;10.48;;;4.68;;
84138;SDS011;74250;51.528;6.748;2024-01-15T08:08:39;9.32;;;4.90;;
84138;SDS011;74250;51.528;6.748;2024-01-15T08:11:04;10.27;;;4.70;;
84138;SDS011;74250;51.528;6.748;2024-01-15T08:13:30;8.50;;;4.35;;
84138;SDS011;74250;51.528;6.748;2024-01-15T08:15:55;9.00;;;5.75;;
84138;SDS011;74250;51.528;6.748;2024-01-15T08:18:21;7.40;;;5.18;;
84138;SDS011;74250;51.528;6.748;2024-01-15T08:20:46;9.18;;;5.90;;
84138;SDS011;74250;51.528;6.748;2024-01-15T08:23:12;8.23;;;4.63;;
84138;SDS011;74250;51.528;6.748;2024-01-15T08:25:37;8.18;;;4.47;;
84138;SDS011;74250;51.528;6.748;2024-01-15T08:28:03;9.13;;;5.50;;
84138;SDS011;74250;51.528;6.748;2024-01-15T08:30:28;10.60;;;6.22;;
84138;SDS011;74250;51.528;6.748;2024-01-15T08:32:55;9.35;;;6.20;;
84138;SDS011;74250;51.528;6.748;2024-01-15T08:35:21;7.95;;;5.13;;
84138;SDS011;74250;51.528;6.748;2024-01-15T08:37:50;7.28;;;4.20;;
84138;SDS011;74250;51.528;6.748;2024-01-15T08:40:16;8.32;;;4.53;;
84138;SDS011;74250;51.528;6.748;2024-01-15T08:42:41;7.55;;;4.43;;
84138;SDS011;74250;51.528;6.748;2024-01-15T08:45:08;7.47;;;4.75;;
84138;SDS011;74250;51.528;6.748;2024-01-15T08:47:33;7.00;;;3.50;;
84138;SDS011;74250;51.528;6.748;2024-01-15T08:49:59;6.60;;;3.97;;
84138;SDS011;74250;51.528;6.748;2024-01-15T08:52:25;6.35;;;3.38;;
84138;SDS011;74250;51.528;6.748;2024-01-15T08:54:50;5.50;;;3.03;;
84138;SDS011;74250;51.528;6.748;2024-01-15T08:57:15;5.53;;;2.63;;
84138;SDS011;74250;51.528;6.748;2024-01-15T08:59:41;5.40;;;2.47;;
84138;SDS011;74250;51.528;6.748;2024-01-15T09:02:07;4.78;;;2.85;;
84138;SDS011;74250;51.528;6.748;2024-01-15T09:04:33;5.53;;;4.00;;
84138;SDS011;74250;51.528;6.748;2024-01-15T09:06:58;6.90;;;2.90;;
84138;SDS011;74250;51.528;6.748;2024-01-15T09:09:24;5.72;;;2.33;;
84138;SDS011;74250;51.528;6.748;2024-01-15T09:11:49;5.25;;;3.13;;
84138;SDS011;74250;51.528;6.748;2024-01-15T09:14:15;4.63;;;1.98;;
84138;SDS011;74250;51.528;6.748;2024-01-15T09:16:40;6.55;;;2.42;;
84138;SDS011;74250;51.528;6.748;2024-01-15T09:19:06;4.28;;;2.38;;
84138;SDS011;74250;51.528;6.748;2024-01-15T09:21:31;4.32;;;2.45;;
84138;SDS011;74250;51.528;6.748;2024-01-15T09:23:56;4.43;;;2.22;;
84138;SDS011;74250;51.528;6.748;2024-01-15T09:26:23;5.82;;;3.33;;
84138;SDS011;74250;51.528;6.748;2024-01-15T09:28:48;5.28;;;3.35;;
84138;SDS011;74250;51.528;6.748;2024-01-15T09:31:14;5.20;;;2.85;;
84138;SDS011;74250;51.528;6.748;2024-01-15T09:33:39;7.45;;;3.33;;
84138;SDS011;74250;51.528;6.748;2024-01-15T09:36:05;6.00;;;3.65;;
84138;SDS011;74250;51.528;6.748;2024-01-15T09:38:30;5.32;;;4.65;;
84138;SDS011;74250;51.528;6.748;2024-01-15T09:40:56;5.22;;;2.88;;
84138;SDS011;74250;51.528;6.748;2024-01-15T09:43:22;6.63;;;4.10;;
84138;SDS011;74250;51.528;6.748;2024-01-15T09:45:48;6.60;;;3.60;;
84138;SDS011;74250;51.528;6.748;2024-01-15T09:48:15;6.28;;;3.40;;
84138;SDS011;74250;51.528;6.748;2024-01-15T09:50:40;6.05;;;3.55;;
84138;SDS011;74250;51.528;6.748;2024-01-15T09:53:05;5.82;;;4.78;;
84138;SDS011;74250;51.528;6.748;2024-01-15T09:55:31;4.93;;;2.22;;
84138;SDS011;74250;51.528;6.748;2024-01-15T09:57:57;5.35;;;4.15;;
84138;SDS011;74250;51.528;6.748;2024-01-15T10:00:25;6.82;;;5.45;;
84138;SDS011;74250;51.528;6.748;2024-01-15T10:02:51;5.88;;;3.60;;
84138;SDS011;74250;51.528;6.748;2024-01-15T10:05:16;5.70;;;2.25;;
84138;SDS011;74250;51.528;6.748;2024-01-15T10:07:41;4.65;;;2.80;;
84138;SDS011;74250;51.528;6.748;2024-01-15T10:10:07;4.65;;;3.80;;
84138;SDS011;74250;51.528;6.748;2024-01-15T10:12:32;5.70;;;2.55;;
84138;SDS011;74250;51.528;6.748;2024-01-15T10:14:58;5.38;;;2.42;;
84138;SDS011;74250;51.528;6.748;2024-01-15T10:17:24;4.70;;;2.50;;
84138;SDS011;74250;51.528;6.748;2024-01-15T10:19:52;4.72;;;2.78;;
84138;SDS011;74250;51.528;6.748;2024-01-15T10:22:18;5.93;;;3.05;;
84138;SDS011;74250;51.528;6.748;2024-01-15T10:24:43;4.32;;;3.08;;
84138;SDS011;74250;51.528;6.748;2024-01-15T10:27:09;4.63;;;2.22;;
84138;SDS011;74250;51.528;6.748;2024-01-15T10:29:35;5.22;;;2.88;;
84138;SDS011;74250;51.528;6.748;2024-01-15T10:32:06;6.10;;;2.30;;
84138;SDS011;74250;51.528;6.748;2024-01-15T10:34:33;3.47;;;1.65;;
84138;SDS011;74250;51.528;6.748;2024-01-15T10:36:58;3.20;;;2.03;;
84138;SDS011;74250;51.528;6.748;2024-01-15T10:39:24;4.47;;;1.40;;
84138;SDS011;74250;51.528;6.748;2024-01-15T10:41:50;6.40;;;1.83;;
84138;SDS011;74250;51.528;6.748;2024-01-15T10:44:18;3.05;;;1.50;;
84138;SDS011;74250;51.528;6.748;2024-01-15T10:46:44;3.78;;;1.95;;
84138;SDS011;74250;51.528;6.748;2024-01-15T10:49:11;6.45;;;1.63;;
84138;SDS011;74250;51.528;6.748;2024-01-15T10:51:36;4.93;;;1.92;;
84138;SDS011;74250;51.528;6.748;2024-01-15T10:54:02;3.30;;;1.27;;
84138;SDS011;74250;51.528;6.748;2024-01-15T10:56:28;2.55;;;1.23;;
84138;SDS011;74250;51.528;6.748;2024-01-15T10:58:55;4.72;;;0.75;;
84138;SDS011;74250;51.528;6.748;2024-01-15T11:01:21;5.97;;;1.48;;
84138;SDS011;74250;51.528;6.748;2024-01-15T11:03:47;2.95;;;0.70;;
84138;SDS011;74250;51.528;6.748;2024-01-15T11:06:17;4.15;;;0.93;;
84138;SDS011;74250;51.528;6.748;2024-01-15T11:08:44;3.25;;;1.30;;
84138;SDS011;74250;51.528;6.748;2024-01-15T11:11:11;2.67;;;1.27;;
84138;SDS011;74250;51.528;6.748;2024-01-15T11:16:03;2.53;;;1.77;;
84138;SDS011;74250;51.528;6.748;2024-01-15T11:18:37;3.60;;;1.55;;
84138;SDS011;74250;51.528;6.748;2024-01-15T11:24:00;3.85;;;2.78;;
84138;SDS011;74250;51.528;6.748;2024-01-15T11:29:10;5.60;;;2.50;;
84138;SDS011;74250;51.528;6.748;2024-01-15T11:32:09;5.95;;;2.90;;
84138;SDS011;74250;51.528;6.748;2024-01-15T11:37:20;6.07;;;3.03;;
84138;SDS011;74250;51.528;6.748;2024-01-15T11:39:46;6.43;;;3.53;;
84138;SDS011;74250;51.528;6.748;2024-01-15T11:42:12;5.28;;;3.10;;
84138;SDS011;74250;51.528;6.748;2024-01-15T11:44:38;6.00;;;3.28;;
84138;SDS011;74250;51.528;6.748;2024-01-15T11:47:07;6.72;;;2.35;;
84138;SDS011;74250;51.528;6.748;2024-01-15T11:52:23;3.67;;;2.08;;
84138;SDS011;74250;51.528;6.748;2024-01-15T11:57:23;3.53;;;2.30;;
84138;SDS011;74250;51.528;6.748;2024-01-15T11:59:53;5.22;;;1.98;;
84138;SDS011;74250;51.528;6.748;2024-01-15T12:02:18;5.28;;;2.08;;
84138;SDS011;74250;51.528;6.748;2024-01-15T12:04:44;4.30;;;2.28;;
84138;SDS011;74250;51.528;6.748;2024-01-15T12:07:09;5.55;;;1.63;;
84138;SDS011;74250;51.528;6.748;2024-01-15T12:09:34;6.05;;;2.15;;
84138;SDS011;74250;51.528;6.748;2024-01-15T12:12:02;6.63;;;2.22;;
84138;SDS011;74250;51.528;6.748;2024-01-15T12:14:32;4.45;;;2.13;;
84138;SDS011;74250;51.528;6.748;2024-01-15T12:16:57;4.22;;;1.45;;
84138;SDS011;74250;51.528;6.748;2024-01-15T12:19:23;5.10;;;2.38;;
84138;SDS011;74250;51.528;6.748;2024-01-15T12:21:50;3.75;;;1.63;;
84138;SDS011;74250;51.528;6.748;2024-01-15T12:24:16;3.42;;;1.05;;
84138;SDS011;74250;51.528;6.748;2024-01-15T12:26:42;5.00;;;1.25;;
84138;SDS011;74250;51.528;6.748;2024-01-15T12:29:07;3.53;;;1.50;;
84138;SDS011;74250;51.528;6.748;2024-01-15T12:31:33;3.60;;;0.90;;
84138;SDS011;74250;51.528;6.748;2024-01-15T12:33:58;3.90;;;1.02;;
84138;SDS011;74250;51.528;6.748;2024-01-15T12:36:23;4.68;;;0.68;;
84138;SDS011;74250;51.528;6.748;2024-01-15T12:38:49;5.57;;;1.30;;
84138;SDS011;74250;51.528;6.748;2024-01-15T12:41:14;5.43;;;1.58;;
84138;SDS011;74250;51.528;6.748;2024-01-15T12:43:40;2.70;;;1.50;;
84138;SDS011;74250;51.528;6.748;2024-01-15T12:46:05;5.38;;;1.38;;
84138;SDS011;74250;51.528;6.748;2024-01-15T12:48:31;4.78;;;2.10;;
84138;SDS011;74250;51.528;6.748;2024-01-15T12:50:56;3.20;;;1.30;;
84138;SDS011;74250;51.528;6.748;2024-01-15T12:53:21;2.67;;;2.47;;
84138;SDS011;74250;51.528;6.748;2024-01-15T12:55:47;3.30;;;1.13;;
84138;SDS011;74250;51.528;6.748;2024-01-15T12:58:12;4.85;;;2.67;;
84138;SDS011;74250;51.528;6.748;2024-01-15T13:00:39;5.70;;;1.50;;
84138;SDS011;74250;51.528;6.748;2024-01-15T13:03:04;6.38;;;1.42;;
84138;SDS011;74250;51.528;6.748;2024-01-15T13:05:31;6.50;;;0.77;;
84138;SDS011;74250;51.528;6.748;2024-01-15T13:07:56;3.45;;;1.23;;
84138;SDS011;74250;51.528;6.748;2024-01-15T13:10:22;2.97;;;0.60;;
84138;SDS011;74250;51.528;6.748;2024-01-15T13:12:47;3.95;;;1.17;;
84138;SDS011;74250;51.528;6.748;2024-01-15T13:15:12;5.57;;;0.98;;
84138;SDS011;74250;51.528;6.748;2024-01-15T13:17:38;3.97;;;1.23;;
84138;SDS011;74250;51.528;6.748;2024-01-15T13:20:05;4.13;;;0.60;;
84138;SDS011;74250;51.528;6.748;2024-01-15T13:22:31;3.28;;;1.88;;
84138;SDS011;74250;51.528;6.748;2024-01-15T13:24:57;4.57;;;1.00;;
84138;SDS011;74250;51.528;6.748;2024-01-15T13:27:23;4.15;;;1.55;;
84138;SDS011;74250;51.528;6.748;2024-01-15T13:29:48;3.97;;;1.05;;
84138;SDS011;74250;51.528;6.748;2024-01-15T13:32:14;2.60;;;1.05;;
84138;SDS011;74250;51.528;6.748;2024-01-15T13:34:42;3.40;;;0.95;;
84138;SDS011;74250;51.528;6.748;2024-01-15T13:37:08;4.15;;;1.45;;
84138;SDS011;74250;51.528;6.748;2024-01-15T13:39:34;3.13;;;1.67;;
84138;SDS011;74250;51.528;6.748;2024-01-15T13:42:01;5.40;;;2.90;;
84138;SDS011;74250;51.528;6.748;2024-01-15T13:44:27;3.05;;;1.45;;
84138;SDS011;74250;51.528;6.748;2024-01-15T13:46:52;3.35;;;1.75;;
84138;SDS011;74250;51.528;6.748;2024-01-15T13:49:18;5.18;;;1.52;;
84138;SDS011;74250;51.528;6.748;2024-01-15T13:51:43;4.25;;;1.52;;
84138;SDS011;74250;51.528;6.748;2024-01-15T13:54:08;2.38;;;0.90;;
84138;SDS011;74250;51.528;6.748;2024-01-15T13:56:34;2.58;;;0.98;;
84138;SDS011;74250;51.528;6.748;2024-01-15T13:59:00;3.83;;;1.13;;
84138;SDS011;74250;51.528;6.748;2024-01-15T14:01:25;2.63;;;1.02;;
84138;SDS011;74250;51.528;6.748;2024-01-15T14:03:53;2.97;;;1.75;;
84138;SDS011;74250;51.528;6.748;2024-01-15T14:06:19;2.60;;;1.10;;
84138;SDS011;74250;51.528;6.748;2024-01-15T14:08:45;3.95;;;1.77;;
84138;SDS011;74250;51.528;6.748;2024-01-15T14:11:10;6.13;;;1.40;;
84138;SDS011;74250;51.528;6.748;2024-01-15T14:13:35;3.80;;;1.15;;
84138;SDS011;74250;51.528;6.748;2024-01-15T14:16:01;3.85;;;0.95;;
84138;SDS011;74250;51.528;6.748;2024-01-15T14:18:26;2.50;;;1.10;;
84138;SDS011;74250;51.528;6.748;2024-01-15T14:20:52;6.15;;;0.80;;
84138;SDS011;74250;51.528;6.748;2024-01-15T14:23:18;3.70;;;0.45;;
84138;SDS011;74250;51.528;6.748;2024-01-15T14:25:44;4.18;;;0.75;;
84138;SDS011;74250;51.528;6.748;2024-01-15T14:28:09;3.90;;;0.95;;
84138;SDS011;74250;51.528;6.748;2024-01-15T14:30:35;2.67;;;0.70;;
84138;SDS011;74250;51.528;6.748;2024-01-15T14:33:01;2.03;;;1.90;;
84138;SDS011;74250;51.528;6.748;2024-01-15T14:35:26;2.50;;;1.25;;
84138;SDS011;74250;51.528;6.748;2024-01-15T14:37:51;4.80;;;1.58;;
84138;SDS011;74250;51.528;6.748;2024-01-15T14:40:17;4.60;;;1.02;;
84138;SDS011;74250;51.528;6.748;2024-01-15T14:42:43;4.10;;;0.88;;
84138;SDS011;74250;51.528;6.748;2024-01-15T14:45:08;1.85;;;0.80;;
84138;SDS011;74250;51.528;6.748;2024-01-15T14:47:37;7.15;;;1.60;;
84138;SDS011;74250;51.528;6.748;2024-01-15T14:52:30;4.05;;;0.32;;